sensor_id;sensor_type;location;lat;lon;timestamp;P1;durP1;ratioP1;P2;durP2;ratioP2
62071;SDS011;48031;48.542;13.232;2023-08-06T00:01:42;6.20;;;4.13;;
62071;SDS011;48031;48.542;13.232;2023-08-06T00:05:44;4.85;;;3.90;;
62071;SDS011;48031;48.542;13.232;2023-08-06T00:09:46;6.22;;;4.75;;
62071;SDS011;48031;48.542;13.232;2023-08-06T00:13:48;5.05;;;4.30;;
62071;SDS011;48031;48.542;13.232;2023-08-06T00:17:51;5.63;;;3.67;;
62071;SDS011;48031;48.542;13.232;2023-08-06T00:21:53;4.55;;;3.60;;
62071;SDS011;48031;48.542;13.232;2023-08-06T00:25:56;5.25;;;4.60;;
62071;SDS011;48031;48.542;13.232;2023-08-06T00:29:58;5.57;;;4.95;;
62071;SDS011;48031;48.542;13.232;2023-08-06T00:34:01;4.88;;;4.20;;
62071;SDS011;48031;48.542;13.232;2023-08-06T00:38:03;5.18;;;4.30;;
62071;SDS011;48031;48.542;13.232;2023-08-06T00:42:06;5.65;;;4.30;;
62071;SDS011;48031;48.542;13.232;2023-08-06T00:46:09;5.20;;;4.47;;
62071;SDS011;48031;48.542;13.232;2023-08-06T00:50:12;6.18;;;4.85;;
62071;SDS011;48031;48.542;13.232;2023-08-06T00:54:15;6.38;;;5.07;;
62071;SDS011;48031;48.542;13.232;2023-08-06T00:58:18;7.28;;;5.13;;
62071;SDS011;48031;48.542;13.232;2023-08-06T01:02:21;5.60;;;4.30;;
62071;SDS011;48031;48.542;13.232;2023-08-06T01:06:31;5.72;;;4.65;;
62071;SDS011;48031;48.542;13.232;2023-08-06T01:15:18;5.05;;;4.25;;
62071;SDS011;48031;48.542;13.232;2023-08-06T01:19:22;3.90;;;3.53;;
62071;SDS011;48031;48.542;13.232;2023-08-06T01:23:24;4.65;;;3.88;;
62071;SDS011;48031;48.542;13.232;2023-08-06T01:31:37;3.90;;;3.33;;
62071;SDS011;48031;48.542;13.232;2023-08-06T01:35:41;4.10;;;3.55;;
62071;SDS011;48031;48.542;13.232;2023-08-06T01:39:45;5.57;;;4.32;;
62071;SDS011;48031;48.542;13.232;2023-08-06T01:43:47;4.65;;;3.55;;
62071;SDS011;48031;48.542;13.232;2023-08-06T01:47:49;5.63;;;4.95;;
62071;SDS011;48031;48.542;13.232;2023-08-06T01:51:51;5.20;;;4.55;;
62071;SDS011;48031;48.542;13.232;2023-08-06T01:55:54;6.88;;;4.15;;
62071;SDS011;48031;48.542;13.232;2023-08-06T01:59:56;4.72;;;3.95;;
62071;SDS011;48031;48.542;13.232;2023-08-06T02:03:59;5.40;;;4.38;;
62071;SDS011;48031;48.542;13.232;2023-08-06T02:08:03;5.35;;;4.43;;
62071;SDS011;48031;48.542;13.232;2023-08-06T02:12:05;6.53;;;5.60;;
62071;SDS011;48031;48.542;13.232;2023-08-06T02:16:08;6.00;;;5.10;;
62071;SDS011;48031;48.542;13.232;2023-08-06T02:20:10;8.80;;;6.40;;
62071;SDS011;48031;48.542;13.232;2023-08-06T02:24:14;6.40;;;5.35;;
62071;SDS011;48031;48.542;13.232;2023-08-06T02:28:16;5.07;;;4.32;;
62071;SDS011;48031;48.542;13.232;2023-08-06T02:32:19;4.50;;;3.95;;
62071;SDS011;48031;48.542;13.232;2023-08-06T02:36:21;5.13;;;3.33;;
62071;SDS011;48031;48.542;13.232;2023-08-06T02:40:23;3.33;;;2.78;;
62071;SDS011;48031;48.542;13.232;2023-08-06T02:44:28;3.40;;;3.08;;
62071;SDS011;48031;48.542;13.232;2023-08-06T02:48:30;3.75;;;3.35;;
62071;SDS011;48031;48.542;13.232;2023-08-06T02:52:32;3.13;;;2.83;;
62071;SDS011;48031;48.542;13.232;2023-08-06T02:56:35;4.85;;;2.70;;
62071;SDS011;48031;48.542;13.232;2023-08-06T03:01:03;2.42;;;2.22;;
62071;SDS011;48031;48.542;13.232;2023-08-06T03:05:16;2.15;;;1.98;;
62071;SDS011;48031;48.542;13.232;2023-08-06T03:09:20;1.92;;;1.77;;
62071;SDS011;48031;48.542;13.232;2023-08-06T03:13:24;2.08;;;1.88;;
62071;SDS011;48031;48.542;13.232;2023-08-06T03:17:27;1.73;;;1.63;;
62071;SDS011;48031;48.542;13.232;2023-08-06T03:21:30;1.45;;;1.35;;
62071;SDS011;48031;48.542;13.232;2023-08-06T03:25:35;2.15;;;1.52;;
62071;SDS011;48031;48.542;13.232;2023-08-06T03:29:39;1.60;;;1.50;;
62071;SDS011;48031;48.542;13.232;2023-08-06T03:33:41;1.52;;;1.42;;
62071;SDS011;48031;48.542;13.232;2023-08-06T03:37:48;1.92;;;1.75;;
62071;SDS011;48031;48.542;13.232;2023-08-06T03:41:52;1.65;;;1.55;;
62071;SDS011;48031;48.542;13.232;2023-08-06T03:45:55;1.58;;;1.48;;
62071;SDS011;48031;48.542;13.232;2023-08-06T03:49:58;1.88;;;1.73;;
62071;SDS011;48031;48.542;13.232;2023-08-06T03:54:00;1.90;;;1.73;;
62071;SDS011;48031;48.542;13.232;2023-08-06T03:58:03;2.40;;;2.13;;
62071;SDS011;48031;48.542;13.232;2023-08-06T04:02:06;2.35;;;2.15;;
62071;SDS011;48031;48.542;13.232;2023-08-06T04:06:09;3.17;;;2.63;;
62071;SDS011;48031;48.542;13.232;2023-08-06T04:10:12;3.22;;;2.80;;
62071;SDS011;48031;48.542;13.232;2023-08-06T04:14:14;2.65;;;2.42;;
62071;SDS011;48031;48.542;13.232;2023-08-06T04:18:17;3.60;;;2.53;;
62071;SDS011;48031;48.542;13.232;2023-08-06T04:22:19;3.40;;;2.90;;
62071;SDS011;48031;48.542;13.232;2023-08-06T04:26:23;4.50;;;3.17;;
62071;SDS011;48031;48.542;13.232;2023-08-06T04:30:25;3.50;;;3.00;;
62071;SDS011;48031;48.542;13.232;2023-08-06T04:34:29;3.47;;;2.90;;
62071;SDS011;48031;48.542;13.232;2023-08-06T04:38:33;3.45;;;2.90;;
62071;SDS011;48031;48.542;13.232;2023-08-06T04:42:35;2.97;;;2.58;;
62071;SDS011;48031;48.542;13.232;2023-08-06T04:46:38;3.35;;;3.00;;
62071;SDS011;48031;48.542;13.232;2023-08-06T04:50:46;3.03;;;2.53;;
62071;SDS011;48031;48.542;13.232;2023-08-06T04:54:52;4.50;;;3.10;;
62071;SDS011;48031;48.542;13.232;2023-08-06T04:58:54;3.15;;;2.85;;
62071;SDS011;48031;48.542;13.232;2023-08-06T05:03:01;3.92;;;2.95;;
62071;SDS011;48031;48.542;13.232;2023-08-06T05:07:05;2.95;;;2.65;;
62071;SDS011;48031;48.542;13.232;2023-08-06T05:11:09;3.15;;;2.85;;
62071;SDS011;48031;48.542;13.232;2023-08-06T05:15:11;2.83;;;2.63;;
62071;SDS011;48031;48.542;13.232;2023-08-06T05:19:14;3.10;;;2.60;;
62071;SDS011;48031;48.542;13.232;2023-08-06T05:23:16;3.05;;;2.75;;
62071;SDS011;48031;48.542;13.232;2023-08-06T05:27:19;3.28;;;2.63;;
62071;SDS011;48031;48.542;13.232;2023-08-06T05:31:22;3.00;;;2.55;;
62071;SDS011;48031;48.542;13.232;2023-08-06T05:35:25;2.55;;;2.35;;
62071;SDS011;48031;48.542;13.232;2023-08-06T05:39:27;3.42;;;2.70;;
62071;SDS011;48031;48.542;13.232;2023-08-06T05:43:29;2.55;;;2.35;;
62071;SDS011;48031;48.542;13.232;2023-08-06T05:47:31;2.38;;;2.17;;
62071;SDS011;48031;48.542;13.232;2023-08-06T05:51:34;2.78;;;2.20;;
62071;SDS011;48031;48.542;13.232;2023-08-06T05:55:38;2.80;;;2.20;;
62071;SDS011;48031;48.542;13.232;2023-08-06T05:59:40;2.38;;;2.17;;
62071;SDS011;48031;48.542;13.232;2023-08-06T06:03:42;2.90;;;2.05;;
62071;SDS011;48031;48.542;13.232;2023-08-06T06:07:45;2.60;;;2.30;;
62071;SDS011;48031;48.542;13.232;2023-08-06T06:11:47;2.35;;;2.15;;
62071;SDS011;48031;48.542;13.232;2023-08-06T06:15:55;3.35;;;2.45;;
62071;SDS011;48031;48.542;13.232;2023-08-06T06:19:59;3.70;;;2.20;;
62071;SDS011;48031;48.542;13.232;2023-08-06T06:24:01;2.70;;;2.40;;
62071;SDS011;48031;48.542;13.232;2023-08-06T06:28:04;2.83;;;2.53;;
62071;SDS011;48031;48.542;13.232;2023-08-06T06:32:07;4.03;;;3.25;;
62071;SDS011;48031;48.542;13.232;2023-08-06T06:36:09;3.10;;;2.80;;
62071;SDS011;48031;48.542;13.232;2023-08-06T06:40:11;4.00;;;2.90;;
62071;SDS011;48031;48.542;13.232;2023-08-06T06:44:14;3.65;;;3.08;;
62071;SDS011;48031;48.542;13.232;2023-08-06T06:48:17;2.95;;;2.65;;
62071;SDS011;48031;48.542;13.232;2023-08-06T06:52:19;3.67;;;3.10;;
62071;SDS011;48031;48.542;13.232;2023-08-06T06:56:21;5.13;;;3.60;;
62071;SDS011;48031;48.542;13.232;2023-08-06T07:00:24;5.55;;;3.13;;
62071;SDS011;48031;48.542;13.232;2023-08-06T07:04:26;3.50;;;2.90;;
62071;SDS011;48031;48.542;13.232;2023-08-06T07:08:29;3.95;;;3.30;;
62071;SDS011;48031;48.542;13.232;2023-08-06T07:12:31;4.18;;;3.13;;
62071;SDS011;48031;48.542;13.232;2023-08-06T07:16:34;4.68;;;3.28;;
62071;SDS011;48031;48.542;13.232;2023-08-06T07:20:37;4.20;;;3.40;;
62071;SDS011;48031;48.542;13.232;2023-08-06T07:24:40;5.13;;;3.15;;
62071;SDS011;48031;48.542;13.232;2023-08-06T07:28:42;4.18;;;3.25;;
62071;SDS011;48031;48.542;13.232;2023-08-06T07:32:44;5.35;;;3.83;;
62071;SDS011;48031;48.542;13.232;2023-08-06T07:36:46;4.53;;;3.42;;
62071;SDS011;48031;48.542;13.232;2023-08-06T07:40:49;9.82;;;3.85;;
62071;SDS011;48031;48.542;13.232;2023-08-06T07:44:53;4.80;;;3.10;;
62071;SDS011;48031;48.542;13.232;2023-08-06T07:48:57;7.78;;;3.28;;
62071;SDS011;48031;48.542;13.232;2023-08-06T07:53:00;3.75;;;2.90;;
62071;SDS011;48031;48.542;13.232;2023-08-06T07:57:03;3.85;;;2.85;;
62071;SDS011;48031;48.542;13.232;2023-08-06T08:01:06;3.63;;;2.70;;
62071;SDS011;48031;48.542;13.232;2023-08-06T08:05:09;4.03;;;3.05;;
62071;SDS011;48031;48.542;13.232;2023-08-06T08:09:11;2.90;;;2.58;;
62071;SDS011;48031;48.542;13.232;2023-08-06T08:13:15;3.30;;;2.67;;
62071;SDS011;48031;48.542;13.232;2023-08-06T08:17:17;3.97;;;2.65;;
62071;SDS011;48031;48.542;13.232;2023-08-06T08:21:20;2.92;;;2.55;;
62071;SDS011;48031;48.542;13.232;2023-08-06T08:25:23;3.13;;;2.50;;
62071;SDS011;48031;48.542;13.232;2023-08-06T08:29:26;2.50;;;2.30;;
62071;SDS011;48031;48.542;13.232;2023-08-06T08:33:29;3.17;;;2.40;;
62071;SDS011;48031;48.542;13.232;2023-08-06T08:37:32;2.47;;;2.00;;
62071;SDS011;48031;48.542;13.232;2023-08-06T08:41:35;2.90;;;2.17;;
62071;SDS011;48031;48.542;13.232;2023-08-06T08:45:39;2.63;;;2.08;;
62071;SDS011;48031;48.542;13.232;2023-08-06T08:49:42;2.80;;;1.80;;
62071;SDS011;48031;48.542;13.232;2023-08-06T08:53:46;3.65;;;2.03;;
62071;SDS011;48031;48.542;13.232;2023-08-06T08:57:50;3.17;;;2.30;;
62071;SDS011;48031;48.542;13.232;2023-08-06T09:01:53;2.40;;;2.17;;
62071;SDS011;48031;48.542;13.232;2023-08-06T09:05:57;2.10;;;1.90;;
62071;SDS011;48031;48.542;13.232;2023-08-06T09:10:02;1.77;;;1.67;;
62071;SDS011;48031;48.542;13.232;2023-08-06T09:14:07;3.70;;;2.03;;
62071;SDS011;48031;48.542;13.232;2023-08-06T09:18:10;3.08;;;1.85;;
62071;SDS011;48031;48.542;13.232;2023-08-06T09:22:14;2.60;;;1.98;;
62071;SDS011;48031;48.542;13.232;2023-08-06T09:26:17;1.70;;;1.60;;
62071;SDS011;48031;48.542;13.232;2023-08-06T09:30:30;2.42;;;1.83;;
62071;SDS011;48031;48.542;13.232;2023-08-06T09:34:33;2.65;;;1.90;;
62071;SDS011;48031;48.542;13.232;2023-08-06T09:38:39;2.15;;;1.55;;
62071;SDS011;48031;48.542;13.232;2023-08-06T09:42:42;1.23;;;1.13;;
62071;SDS011;48031;48.542;13.232;2023-08-06T09:50:53;1.40;;;1.30;;
62071;SDS011;48031;48.542;13.232;2023-08-06T09:54:57;2.97;;;1.35;;
62071;SDS011;48031;48.542;13.232;2023-08-06T09:59:01;1.80;;;1.05;;
62071;SDS011;48031;48.542;13.232;2023-08-06T10:03:04;1.38;;;0.93;;
62071;SDS011;48031;48.542;13.232;2023-08-06T10:07:06;1.00;;;1.00;;
62071;SDS011;48031;48.542;13.232;2023-08-06T10:11:09;1.00;;;0.80;;
62071;SDS011;48031;48.542;13.232;2023-08-06T10:15:13;0.93;;;0.85;;
62071;SDS011;48031;48.542;13.232;2023-08-06T10:19:20;1.80;;;0.90;;
62071;SDS011;48031;48.542;13.232;2023-08-06T10:23:32;0.68;;;0.65;;
62071;SDS011;48031;48.542;13.232;2023-08-06T10:27:40;1.08;;;0.80;;
62071;SDS011;48031;48.542;13.232;2023-08-06T10:32:00;0.77;;;0.77;;
62071;SDS011;48031;48.542;13.232;2023-08-06T10:36:02;0.60;;;0.60;;
62071;SDS011;48031;48.542;13.232;2023-08-06T10:40:10;0.60;;;0.60;;
62071;SDS011;48031;48.542;13.232;2023-08-06T10:44:12;0.70;;;0.63;;
62071;SDS011;48031;48.542;13.232;2023-08-06T10:48:24;0.70;;;0.70;;
62071;SDS011;48031;48.542;13.232;2023-08-06T10:52:36;0.50;;;0.50;;
62071;SDS011;48031;48.542;13.232;2023-08-06T10:56:40;0.70;;;0.60;;
62071;SDS011;48031;48.542;13.232;2023-08-06T11:00:44;1.50;;;0.60;;
62071;SDS011;48031;48.542;13.232;2023-08-06T11:04:48;0.70;;;0.60;;
62071;SDS011;48031;48.542;13.232;2023-08-06T11:08:51;0.75;;;0.60;;
62071;SDS011;48031;48.542;13.232;2023-08-06T11:13:00;0.70;;;0.60;;
62071;SDS011;48031;48.542;13.232;2023-08-06T11:17:04;0.75;;;0.75;;
62071;SDS011;48031;48.542;13.232;2023-08-06T11:21:07;0.95;;;0.73;;
62071;SDS011;48031;48.542;13.232;2023-08-06T11:25:11;0.85;;;0.80;;
62071;SDS011;48031;48.542;13.232;2023-08-06T11:29:15;1.98;;;1.40;;
62071;SDS011;48031;48.542;13.232;2023-08-06T11:33:24;1.70;;;0.80;;
62071;SDS011;48031;48.542;13.232;2023-08-06T11:37:27;1.23;;;0.80;;
62071;SDS011;48031;48.542;13.232;2023-08-06T11:41:29;1.42;;;0.90;;
62071;SDS011;48031;48.542;13.232;2023-08-06T11:45:34;1.15;;;0.80;;
62071;SDS011;48031;48.542;13.232;2023-08-06T11:49:41;0.80;;;0.80;;
62071;SDS011;48031;48.542;13.232;2023-08-06T11:53:50;2.28;;;0.70;;
62071;SDS011;48031;48.542;13.232;2023-08-06T11:57:56;0.85;;;0.50;;
62071;SDS011;48031;48.542;13.232;2023-08-06T12:02:01;1.75;;;0.70;;
62071;SDS011;48031;48.542;13.232;2023-08-06T12:06:05;1.50;;;0.70;;
62071;SDS011;48031;48.542;13.232;2023-08-06T12:10:07;0.50;;;0.50;;
62071;SDS011;48031;48.542;13.232;2023-08-06T12:14:09;0.63;;;0.63;;
62071;SDS011;48031;48.542;13.232;2023-08-06T12:18:11;0.60;;;0.60;;
62071;SDS011;48031;48.542;13.232;2023-08-06T12:22:14;0.50;;;0.50;;
62071;SDS011;48031;48.542;13.232;2023-08-06T12:26:17;0.55;;;0.50;;
62071;SDS011;48031;48.542;13.232;2023-08-06T12:30:21;0.50;;;0.50;;
62071;SDS011;48031;48.542;13.232;2023-08-06T12:34:24;0.57;;;0.50;;
62071;SDS011;48031;48.542;13.232;2023-08-06T12:38:30;3.72;;;0.50;;
62071;SDS011;48031;48.542;13.232;2023-08-06T12:42:35;0.95;;;0.50;;
62071;SDS011;48031;48.542;13.232;2023-08-06T12:46:37;0.40;;;0.40;;
62071;SDS011;48031;48.542;13.232;2023-08-06T12:50:39;0.60;;;0.40;;
62071;SDS011;48031;48.542;13.232;2023-08-06T12:54:42;0.40;;;0.40;;
62071;SDS011;48031;48.542;13.232;2023-08-06T12:58:45;0.40;;;0.40;;
62071;SDS011;48031;48.542;13.232;2023-08-06T13:02:48;2.05;;;0.50;;
62071;SDS011;48031;48.542;13.232;2023-08-06T13:06:50;0.60;;;0.52;;
62071;SDS011;48031;48.542;13.232;2023-08-06T13:10:53;0.40;;;0.40;;
62071;SDS011;48031;48.542;13.232;2023-08-06T13:14:55;0.30;;;0.30;;
62071;SDS011;48031;48.542;13.232;2023-08-06T13:18:59;3.33;;;0.40;;
62071;SDS011;48031;48.542;13.232;2023-08-06T13:23:02;0.55;;;0.50;;
62071;SDS011;48031;48.542;13.232;2023-08-06T13:27:04;0.40;;;0.40;;
62071;SDS011;48031;48.542;13.232;2023-08-06T13:31:07;0.50;;;0.50;;
62071;SDS011;48031;48.542;13.232;2023-08-06T13:35:10;0.40;;;0.40;;
62071;SDS011;48031;48.542;13.232;2023-08-06T13:39:12;0.73;;;0.40;;
62071;SDS011;48031;48.542;13.232;2023-08-06T13:43:14;0.60;;;0.60;;
62071;SDS011;48031;48.542;13.232;2023-08-06T13:47:18;0.50;;;0.50;;
62071;SDS011;48031;48.542;13.232;2023-08-06T13:51:21;0.75;;;0.40;;
62071;SDS011;48031;48.542;13.232;2023-08-06T13:55:24;0.45;;;0.40;;
62071;SDS011;48031;48.542;13.232;2023-08-06T13:59:26;0.30;;;0.30;;
62071;SDS011;48031;48.542;13.232;2023-08-06T14:03:29;0.30;;;0.30;;
62071;SDS011;48031;48.542;13.232;2023-08-06T14:07:31;1.48;;;0.30;;
62071;SDS011;48031;48.542;13.232;2023-08-06T14:11:33;1.30;;;0.40;;
62071;SDS011;48031;48.542;13.232;2023-08-06T14:15:36;0.65;;;0.40;;
62071;SDS011;48031;48.542;13.232;2023-08-06T14:19:42;0.65;;;0.30;;
62071;SDS011;48031;48.542;13.232;2023-08-06T14:23:45;2.95;;;0.50;;
62071;SDS011;48031;48.542;13.232;2023-08-06T14:27:47;0.32;;;0.30;;
62071;SDS011;48031;48.542;13.232;2023-08-06T14:31:50;0.20;;;0.20;;
62071;SDS011;48031;48.542;13.232;2023-08-06T14:35:53;0.68;;;0.60;;
62071;SDS011;48031;48.542;13.232;2023-08-06T14:39:55;6.35;;;5.95;;
62071;SDS011;48031;48.542;13.232;2023-08-06T14:43:57;0.30;;;0.30;;
62071;SDS011;48031;48.542;13.232;2023-08-06T14:48:00;0.52;;;0.30;;
62071;SDS011;48031;48.542;13.232;2023-08-06T14:52:03;0.30;;;0.30;;
62071;SDS011;48031;48.542;13.232;2023-08-06T14:56:06;0.30;;;0.30;;
62071;SDS011;48031;48.542;13.232;2023-08-06T15:00:09;0.40;;;0.30;;
62071;SDS011;48031;48.542;13.232;2023-08-06T15:04:12;0.40;;;0.40;;
62071;SDS011;48031;48.542;13.232;2023-08-06T15:08:14;0.40;;;0.40;;
62071;SDS011;48031;48.542;13.232;2023-08-06T15:12:17;0.40;;;0.40;;
62071;SDS011;48031;48.542;13.232;2023-08-06T15:16:20;0.40;;;0.40;;
62071;SDS011;48031;48.542;13.232;2023-08-06T15:20:22;0.40;;;0.40;;
62071;SDS011;48031;48.542;13.232;2023-08-06T15:24:27;0.85;;;0.40;;
62071;SDS011;48031;48.542;13.232;2023-08-06T15:28:31;0.30;;;0.30;;
62071;SDS011;48031;48.542;13.232;2023-08-06T15:32:34;0.40;;;0.40;;
62071;SDS011;48031;48.542;13.232;2023-08-06T15:36:36;0.40;;;0.40;;
62071;SDS011;48031;48.542;13.232;2023-08-06T15:40:39;0.80;;;0.50;;
62071;SDS011;48031;48.542;13.232;2023-08-06T15:44:41;0.30;;;0.30;;
62071;SDS011;48031;48.542;13.232;2023-08-06T15:48:44;2.92;;;0.40;;
62071;SDS011;48031;48.542;13.232;2023-08-06T15:52:47;0.30;;;0.30;;
62071;SDS011;48031;48.542;13.232;2023-08-06T15:56:49;0.30;;;0.30;;
62071;SDS011;48031;48.542;13.232;2023-08-06T16:00:53;0.40;;;0.40;;
62071;SDS011;48031;48.542;13.232;2023-08-06T16:04:55;0.50;;;0.50;;
62071;SDS011;48031;48.542;13.232;2023-08-06T16:08:59;0.40;;;0.40;;
62071;SDS011;48031;48.542;13.232;2023-08-06T16:13:02;0.60;;;0.60;;
62071;SDS011;48031;48.542;13.232;2023-08-06T16:17:04;1.02;;;0.60;;
62071;SDS011;48031;48.542;13.232;2023-08-06T16:21:06;0.80;;;0.70;;
62071;SDS011;48031;48.542;13.232;2023-08-06T16:25:09;2.15;;;0.90;;
62071;SDS011;48031;48.542;13.232;2023-08-06T16:29:14;6.18;;;2.40;;
62071;SDS011;48031;48.542;13.232;2023-08-06T16:33:17;0.98;;;0.60;;
62071;SDS011;48031;48.542;13.232;2023-08-06T16:37:19;0.50;;;0.50;;
62071;SDS011;48031;48.542;13.232;2023-08-06T16:41:21;1.00;;;0.73;;
62071;SDS011;48031;48.542;13.232;2023-08-06T16:45:24;0.50;;;0.50;;
62071;SDS011;48031;48.542;13.232;2023-08-06T16:49:26;0.70;;;0.70;;
62071;SDS011;48031;48.542;13.232;2023-08-06T16:53:28;0.70;;;0.70;;
62071;SDS011;48031;48.542;13.232;2023-08-06T16:57:31;0.73;;;0.73;;
62071;SDS011;48031;48.542;13.232;2023-08-06T17:01:34;0.95;;;0.80;;
62071;SDS011;48031;48.542;13.232;2023-08-06T17:05:39;0.80;;;0.80;;
62071;SDS011;48031;48.542;13.232;2023-08-06T17:09:41;1.00;;;0.88;;
62071;SDS011;48031;48.542;13.232;2023-08-06T17:13:44;1.10;;;1.00;;
62071;SDS011;48031;48.542;13.232;2023-08-06T17:17:46;0.80;;;0.77;;
62071;SDS011;48031;48.542;13.232;2023-08-06T17:21:49;1.25;;;0.90;;
62071;SDS011;48031;48.542;13.232;2023-08-06T17:25:52;1.25;;;0.70;;
62071;SDS011;48031;48.542;13.232;2023-08-06T17:29:57;1.38;;;1.00;;
62071;SDS011;48031;48.542;13.232;2023-08-06T17:34:00;1.10;;;1.00;;
62071;SDS011;48031;48.542;13.232;2023-08-06T17:38:02;0.73;;;0.73;;
62071;SDS011;48031;48.542;13.232;2023-08-06T17:42:05;1.10;;;1.00;;
62071;SDS011;48031;48.542;13.232;2023-08-06T17:46:12;2.00;;;0.98;;
62071;SDS011;48031;48.542;13.232;2023-08-06T17:50:15;2.10;;;1.00;;
62071;SDS011;48031;48.542;13.232;2023-08-06T17:54:18;3.13;;;1.20;;
62071;SDS011;48031;48.542;13.232;2023-08-06T17:58:21;2.03;;;1.40;;
62071;SDS011;48031;48.542;13.232;2023-08-06T18:02:24;2.65;;;1.20;;
62071;SDS011;48031;48.542;13.232;2023-08-06T18:06:26;1.48;;;0.90;;
62071;SDS011;48031;48.542;13.232;2023-08-06T18:10:29;1.13;;;1.05;;
62071;SDS011;48031;48.542;13.232;2023-08-06T18:14:31;1.67;;;1.25;;
62071;SDS011;48031;48.542;13.232;2023-08-06T18:18:34;1.10;;;1.00;;
62071;SDS011;48031;48.542;13.232;2023-08-06T18:22:36;1.45;;;1.30;;
62071;SDS011;48031;48.542;13.232;2023-08-06T18:26:41;4.00;;;2.13;;
62071;SDS011;48031;48.542;13.232;2023-08-06T18:30:44;1.33;;;0.90;;
62071;SDS011;48031;48.542;13.232;2023-08-06T18:34:46;1.10;;;1.00;;
62071;SDS011;48031;48.542;13.232;2023-08-06T18:38:49;0.95;;;0.90;;
62071;SDS011;48031;48.542;13.232;2023-08-06T18:42:52;0.95;;;0.90;;
62071;SDS011;48031;48.542;13.232;2023-08-06T18:46:55;0.90;;;0.80;;
62071;SDS011;48031;48.542;13.232;2023-08-06T18:50:57;2.05;;;0.90;;
62071;SDS011;48031;48.542;13.232;2023-08-06T18:55:01;0.85;;;0.80;;
62071;SDS011;48031;48.542;13.232;2023-08-06T18:59:04;1.00;;;0.88;;
62071;SDS011;48031;48.542;13.232;2023-08-06T19:03:09;1.17;;;0.80;;
62071;SDS011;48031;48.542;13.232;2023-08-06T19:07:12;0.85;;;0.85;;
62071;SDS011;48031;48.542;13.232;2023-08-06T19:11:14;2.17;;;0.85;;
62071;SDS011;48031;48.542;13.232;2023-08-06T19:15:16;0.70;;;0.70;;
62071;SDS011;48031;48.542;13.232;2023-08-06T19:19:19;0.73;;;0.73;;
62071;SDS011;48031;48.542;13.232;2023-08-06T19:23:21;0.85;;;0.85;;
62071;SDS011;48031;48.542;13.232;2023-08-06T19:31:32;0.80;;;0.80;;
62071;SDS011;48031;48.542;13.232;2023-08-06T19:35:51;0.75;;;0.75;;
62071;SDS011;48031;48.542;13.232;2023-08-06T19:39:55;0.80;;;0.80;;
62071;SDS011;48031;48.542;13.232;2023-08-06T19:43:57;0.82;;;0.70;;
62071;SDS011;48031;48.542;13.232;2023-08-06T19:47:59;1.20;;;0.73;;
62071;SDS011;48031;48.542;13.232;2023-08-06T19:52:01;2.92;;;0.73;;
62071;SDS011;48031;48.542;13.232;2023-08-06T19:56:05;0.70;;;0.70;;
62071;SDS011;48031;48.542;13.232;2023-08-06T20:00:09;2.15;;;0.80;;
62071;SDS011;48031;48.542;13.232;2023-08-06T20:04:15;1.15;;;0.82;;
62071;SDS011;48031;48.542;13.232;2023-08-06T20:08:17;0.88;;;0.70;;
62071;SDS011;48031;48.542;13.232;2023-08-06T20:12:20;0.80;;;0.80;;
62071;SDS011;48031;48.542;13.232;2023-08-06T20:16:23;0.88;;;0.70;;
62071;SDS011;48031;48.542;13.232;2023-08-06T20:20:26;0.70;;;0.70;;
62071;SDS011;48031;48.542;13.232;2023-08-06T20:24:29;1.15;;;0.80;;
62071;SDS011;48031;48.542;13.232;2023-08-06T20:28:33;3.63;;;0.90;;
62071;SDS011;48031;48.542;13.232;2023-08-06T20:32:36;0.80;;;0.65;;
62071;SDS011;48031;48.542;13.232;2023-08-06T20:36:38;0.70;;;0.70;;
62071;SDS011;48031;48.542;13.232;2023-08-06T20:40:41;0.70;;;0.70;;
62071;SDS011;48031;48.542;13.232;2023-08-06T20:44:43;0.70;;;0.70;;
62071;SDS011;48031;48.542;13.232;2023-08-06T20:48:47;0.93;;;0.70;;
62071;SDS011;48031;48.542;13.232;2023-08-06T20:52:50;1.23;;;0.90;;
62071;SDS011;48031;48.542;13.232;2023-08-06T20:56:53;1.00;;;0.80;;
62071;SDS011;48031;48.542;13.232;2023-08-06T21:00:57;1.25;;;0.77;;
62071;SDS011;48031;48.542;13.232;2023-08-06T21:05:01;1.13;;;0.70;;
62071;SDS011;48031;48.542;13.232;2023-08-06T21:09:03;0.95;;;0.60;;
62071;SDS011;48031;48.542;13.232;2023-08-06T21:13:08;0.80;;;0.80;;
62071;SDS011;48031;48.542;13.232;2023-08-06T21:17:10;0.77;;;0.77;;
62071;SDS011;48031;48.542;13.232;2023-08-06T21:21:12;0.85;;;0.70;;
62071;SDS011;48031;48.542;13.232;2023-08-06T21:25:15;0.77;;;0.77;;
62071;SDS011;48031;48.542;13.232;2023-08-06T21:29:18;0.80;;;0.80;;
62071;SDS011;48031;48.542;13.232;2023-08-06T21:33:21;0.70;;;0.70;;
62071;SDS011;48031;48.542;13.232;2023-08-06T21:37:25;0.70;;;0.70;;
62071;SDS011;48031;48.542;13.232;2023-08-06T21:41:27;0.82;;;0.70;;
62071;SDS011;48031;48.542;13.232;2023-08-06T21:45:34;1.40;;;0.70;;
62071;SDS011;48031;48.542;13.232;2023-08-06T21:49:36;0.80;;;0.80;;
62071;SDS011;48031;48.542;13.232;2023-08-06T21:53:40;1.15;;;0.98;;
62071;SDS011;48031;48.542;13.232;2023-08-06T21:57:44;2.15;;;0.90;;
62071;SDS011;48031;48.542;13.232;2023-08-06T22:01:47;1.05;;;0.95;;
62071;SDS011;48031;48.542;13.232;2023-08-06T22:05:49;0.80;;;0.80;;
62071;SDS011;48031;48.542;13.232;2023-08-06T22:09:52;2.05;;;0.90;;
62071;SDS011;48031;48.542;13.232;2023-08-06T22:13:55;0.93;;;0.80;;
62071;SDS011;48031;48.542;13.232;2023-08-06T22:17:58;1.08;;;0.90;;
62071;SDS011;48031;48.542;13.232;2023-08-06T22:22:01;1.67;;;0.80;;
62071;SDS011;48031;48.542;13.232;2023-08-06T22:26:06;0.80;;;0.80;;
62071;SDS011;48031;48.542;13.232;2023-08-06T22:30:09;0.70;;;0.70;;
62071;SDS011;48031;48.542;13.232;2023-08-06T22:34:16;0.98;;;0.93;;
62071;SDS011;48031;48.542;13.232;2023-08-06T22:38:18;1.08;;;0.93;;
62071;SDS011;48031;48.542;13.232;2023-08-06T22:42:20;1.00;;;0.90;;
62071;SDS011;48031;48.542;13.232;2023-08-06T22:46:23;0.95;;;0.88;;
62071;SDS011;48031;48.542;13.232;2023-08-06T22:50:27;1.60;;;1.10;;
62071;SDS011;48031;48.542;13.232;2023-08-06T22:54:30;0.70;;;0.70;;
62071;SDS011;48031;48.542;13.232;2023-08-06T22:58:33;3.42;;;0.90;;
62071;SDS011;48031;48.542;13.232;2023-08-06T23:02:35;3.33;;;1.20;;
62071;SDS011;48031;48.542;13.232;2023-08-06T23:06:46;1.10;;;1.00;;
62071;SDS011;48031;48.542;13.232;2023-08-06T23:10:49;1.42;;;1.10;;
62071;SDS011;48031;48.542;13.232;2023-08-06T23:14:52;0.93;;;0.88;;
62071;SDS011;48031;48.542;13.232;2023-08-06T23:18:54;1.10;;;1.00;;
62071;SDS011;48031;48.542;13.232;2023-08-06T23:22:57;1.10;;;1.00;;
62071;SDS011;48031;48.542;13.232;2023-08-06T23:27:00;1.10;;;1.00;;
62071;SDS011;48031;48.542;13.232;2023-08-06T23:31:05;1.35;;;1.00;;
62071;SDS011;48031;48.542;13.232;2023-08-06T23:35:07;1.15;;;0.90;;
62071;SDS011;48031;48.542;13.232;2023-08-06T23:39:11;1.40;;;1.10;;
62071;SDS011;48031;48.542;13.232;2023-08-06T23:43:14;1.75;;;1.30;;
62071;SDS011;48031;48.542;13.232;2023-08-06T23:47:16;2.00;;;1.13;;
62071;SDS011;48031;48.542;13.232;2023-08-06T23:51:18;1.65;;;1.10;;
62071;SDS011;48031;48.542;13.232;2023-08-06T23:55:21;1.38;;;1.27;;
62071;SDS011;48031;48.542;13.232;2023-08-06T23:59:24;3.72;;;1.38;;
